createdAt,value
2023-10-15T13:22:24.927Z,11.46
2023-10-15T13:37:25.800Z,11.66
2023-10-15T13:52:25.634Z,11.73
2023-10-15T14:07:25.467Z,11.87
2023-10-15T14:22:26.744Z,12.01
2023-10-15T14:37:25.112Z,11.58
2023-10-15T14:56:06.927Z,10.66
2023-10-15T15:11:15.336Z,10.89
2023-10-15T15:26:07.638Z,10.40
2023-10-15T15:41:07.460Z,9.90
2023-10-15T15:56:07.296Z,9.59
2023-10-15T16:11:07.178Z,9.21
2023-10-15T16:26:07.157Z,9.02
2023-10-15T16:41:06.789Z,8.92
2023-10-15T16:56:06.842Z,9.05
2023-10-15T17:11:06.484Z,8.98
2023-10-15T17:26:06.369Z,9.21
2023-10-15T17:41:06.275Z,8.72
2023-10-15T17:56:13.707Z,8.70
2023-10-15T18:11:05.810Z,8.77
2023-10-15T18:26:05.733Z,8.77
2023-10-15T18:41:05.619Z,8.44
2023-10-15T18:56:05.356Z,8.12
2023-10-15T19:11:05.265Z,7.78
2023-10-15T19:26:05.067Z,7.61
2023-10-15T19:41:04.911Z,7.51
2023-10-15T19:56:04.697Z,7.54
2023-10-15T20:11:04.573Z,7.39
2023-10-15T20:26:04.384Z,7.30
2023-10-15T20:41:04.225Z,7.31
2023-10-15T20:56:04.086Z,7.21
2023-10-15T21:11:03.914Z,7.08
2023-10-15T21:26:03.740Z,6.88
2023-10-15T21:41:03.605Z,6.69
2023-10-15T21:56:03.461Z,6.69
2023-10-15T22:11:03.301Z,6.55
2023-10-15T22:26:03.190Z,6.51
2023-10-15T22:41:02.981Z,6.36
2023-10-15T22:56:02.830Z,6.33
2023-10-15T23:11:02.724Z,6.17
2023-10-15T23:26:03.686Z,6.14
2023-10-15T23:41:02.481Z,6.11
2023-10-15T23:56:02.275Z,5.92
